Time;durP1;ratioP1;P1;durP2;ratioP2;P2;SDS_P1;SDS_P2;PMS_P1;PMS_P2;Temp;Humidity;BMP_temperature;BMP_pressure;BME280_temperature;BME280_humidity;BME280_pressure;Samples;Min_cycle;Max_cycle;Signal;HPM_P1;HPM_P2
2022/12/21 00:04:30;;;;;;;69.33;29.23;;;0.20;99.90;;;;;;10348500;28;20045;-86
2022/12/21 00:09:31;;;;;;;72.53;29.97;;;0.20;99.90;;;;;;10317894;28;20557;-85
2022/12/21 00:14:31;;;;;;;72.03;28.70;;;0.20;99.90;;;;;;10319098;28;20551;-86
2022/12/21 00:19:32;;;;;;;65.50;28.27;;;0.20;99.90;;;;;;10317633;28;20026;-88
2022/12/21 00:24:32;;;;;;;68.27;27.30;;;0.20;99.90;;;;;;10349561;28;20042;-87
2022/12/21 00:29:33;;;;;;;77.33;28.80;;;0.10;99.90;;;;;;10343493;28;20030;-85
2022/12/21 00:34:33;;;;;;;79.03;32.63;;;0.10;99.90;;;;;;10317231;28;20085;-87
2022/12/21 00:39:34;;;;;;;65.77;28.83;;;0.10;99.90;;;;;;10312426;28;20721;-84
2022/12/21 00:44:35;;;;;;;70.57;27.07;;;0.10;99.90;;;;;;10319467;28;20042;-85
2022/12/21 00:49:35;;;;;;;64.83;27.10;;;0.00;99.90;;;;;;10321527;28;20038;-88
2022/12/21 00:54:36;;;;;;;82.23;32.87;;;0.00;99.90;;;;;;10321738;28;20038;-85
2022/12/21 00:59:36;;;;;;;79.13;30.47;;;0.10;99.90;;;;;;10325949;28;20088;-85
2022/12/21 01:04:37;;;;;;;69.40;28.47;;;0.10;99.90;;;;;;10357687;28;20038;-84
2022/12/21 01:09:37;;;;;;;62.07;25.40;;;0.10;99.90;;;;;;10325330;28;20030;-86
2022/12/21 01:14:38;;;;;;;69.57;28.30;;;0.20;99.90;;;;;;10320953;28;20038;-85
2022/12/21 01:19:39;;;;;;;65.17;25.43;;;0.30;99.90;;;;;;10316554;28;20375;-88
2022/12/21 01:24:39;;;;;;;61.03;26.23;;;0.40;99.90;;;;;;10324735;28;20449;-88
2022/12/21 01:29:40;;;;;;;56.43;24.63;;;0.50;99.90;;;;;;10323646;28;20394;-87
2022/12/21 01:34:41;;;;;;;65.00;23.97;;;0.60;99.90;;;;;;10357095;28;20038;-85
2022/12/21 01:39:41;;;;;;;63.03;26.53;;;0.60;99.90;;;;;;10314261;28;20055;-88
2022/12/21 01:45:03;;;;;;;72.17;25.30;;;0.70;99.90;;;;;;10321472;28;20042;-83
2022/12/21 01:50:31;;;;;;;52.73;21.73;;;0.70;99.90;;;;;;10324199;28;20034;-83
2022/12/21 01:55:33;;;;;;;57.27;23.97;;;0.80;99.90;;;;;;10321456;28;20203;-86
2022/12/21 02:00:35;;;;;;;58.30;24.27;;;0.80;99.90;;;;;;10323059;28;20105;-83
2022/12/21 02:05:53;;;;;;;62.30;24.63;;;0.70;99.90;;;;;;10303381;28;20039;-84
2022/12/21 02:10:54;;;;;;;56.83;22.30;;;0.70;99.90;;;;;;10285778;28;20054;-83
2022/12/21 02:16:18;;;;;;;57.67;24.27;;;0.60;99.90;;;;;;10293395;28;20088;-82
2022/12/21 02:21:22;;;;;;;61.70;26.60;;;0.60;99.90;;;;;;10324459;28;20023;-83
2022/12/21 02:26:41;;;;;;;58.40;23.30;;;0.50;99.90;;;;;;10322427;28;20039;-83
2022/12/21 02:31:50;;;;;;;61.13;25.90;;;0.50;99.90;;;;;;10354990;28;20130;-83
2022/12/21 02:37:06;;;;;;;62.57;25.63;;;0.50;99.90;;;;;;10322713;28;20053;-83
2022/12/21 02:44:12;;;;;;;57.35;23.55;;;0.50;99.90;;;;;;10320317;28;20446;-83
2022/12/21 02:47:48;;;;;;;51.97;22.70;;;0.50;99.90;;;;;;10322084;28;20108;-86
2022/12/21 02:52:55;;;;;;;55.37;24.07;;;0.50;99.90;;;;;;10313480;28;20027;-82
2022/12/21 02:58:15;;;;;;;47.60;21.27;;;0.40;99.90;;;;;;10316132;28;20173;-82
2022/12/21 03:04:02;;;;;;;47.20;19.80;;;0.40;99.90;;;;;;10321358;28;20529;-85
2022/12/21 03:09:26;;;;;;;55.20;21.33;;;0.40;99.90;;;;;;10296552;28;20033;-82
2022/12/21 03:14:37;;;;;;;55.27;23.77;;;0.30;99.90;;;;;;10320145;28;20046;-84
2022/12/21 03:19:49;;;;;;;56.37;21.93;;;0.30;99.90;;;;;;10316056;28;20022;-83
2022/12/21 03:25:00;;;;;;;58.47;23.53;;;0.20;99.90;;;;;;10316128;28;20804;-86
2022/12/21 03:30:12;;;;;;;47.50;19.60;;;0.30;99.90;;;;;;10319092;28;20057;-82
2022/12/21 03:35:37;;;;;;;57.80;19.53;;;0.20;99.90;;;;;;10314623;28;20033;-82
2022/12/21 03:40:41;;;;;;;57.90;23.90;;;0.20;99.90;;;;;;10287700;28;20078;-84
2022/12/21 03:45:47;;;;;;;50.27;21.57;;;0.30;99.90;;;;;;10320192;28;20042;-82
2022/12/21 03:50:49;;;;;;;54.03;22.13;;;0.30;99.90;;;;;;10317091;28;20034;-88
2022/12/21 03:55:51;;;;;;;49.83;20.23;;;0.40;99.90;;;;;;10312815;28;20031;-83
2022/12/21 04:01:03;;;;;;;48.00;19.73;;;0.40;99.90;;;;;;10318032;28;20478;-83
2022/12/21 04:06:15;;;;;;;56.80;21.07;;;0.50;99.90;;;;;;10328849;28;20038;-83
2022/12/21 04:16:34;;;;;;;49.63;21.53;;;0.40;99.90;;;;;;10318748;28;20058;-86
2022/12/21 04:21:35;;;;;;;47.10;19.13;;;0.50;99.90;;;;;;10318867;28;20027;-83
2022/12/21 04:31:55;;;;;;;53.57;19.47;;;0.50;99.90;;;;;;10316914;28;20505;-84
2022/12/21 04:42:14;;;;;;;59.70;21.90;;;0.50;99.90;;;;;;10311753;28;20491;-83
2022/12/21 04:47:15;;;;;;;56.80;25.10;;;0.50;99.90;;;;;;10317369;28;20046;-82
2022/12/21 04:52:16;;;;;;;51.23;21.77;;;0.60;99.90;;;;;;10316953;28;20423;-84
2022/12/21 04:57:17;;;;;;;53.93;20.93;;;0.60;99.90;;;;;;10318048;28;20039;-85
2022/12/21 05:02:17;;;;;;;61.43;25.63;;;0.60;99.90;;;;;;10315558;28;20026;-82
2022/12/21 05:07:18;;;;;;;59.80;23.73;;;0.60;99.90;;;;;;10307323;28;20064;-84
2022/12/21 05:12:18;;;;;;;58.57;24.00;;;0.70;99.90;;;;;;10309526;28;20037;-84
2022/12/21 05:17:19;;;;;;;44.87;20.23;;;0.70;99.90;;;;;;10317291;28;20038;-84
2022/12/21 05:22:19;;;;;;;49.53;21.00;;;0.70;99.90;;;;;;10350041;28;20033;-83
2022/12/21 05:27:20;;;;;;;51.03;21.27;;;0.80;99.90;;;;;;10318294;28;20158;-83
2022/12/21 05:32:20;;;;;;;58.17;24.63;;;0.80;99.90;;;;;;10318465;28;20049;-86
2022/12/21 05:37:21;;;;;;;65.63;27.30;;;0.80;99.90;;;;;;10325361;28;20161;-84
2022/12/21 05:42:22;;;;;;;55.57;24.97;;;0.80;99.90;;;;;;10325618;28;20418;-84
2022/12/21 05:47:22;;;;;;;59.27;24.90;;;0.90;99.90;;;;;;10324187;28;20050;-84
2022/12/21 05:52:23;;;;;;;53.37;22.77;;;0.90;99.90;;;;;;10324974;28;20034;-84
2022/12/21 05:57:23;;;;;;;55.13;24.50;;;1.00;99.90;;;;;;10323285;28;20027;-84
2022/12/21 06:02:24;;;;;;;73.23;28.30;;;1.00;99.90;;;;;;10324438;28;20105;-84
2022/12/21 06:07:24;;;;;;;66.87;26.63;;;1.10;99.90;;;;;;10324556;28;20419;-84
2022/12/21 06:12:27;;;;;;;67.67;29.70;;;1.10;99.90;;;;;;10324959;28;20026;-85
2022/12/21 06:17:29;;;;;;;66.27;26.37;;;1.20;99.90;;;;;;10355302;28;20034;-85
2022/12/21 06:22:33;;;;;;;111.50;42.37;;;1.20;99.90;;;;;;10323224;28;20019;-84
2022/12/21 06:27:33;;;;;;;122.30;45.70;;;1.30;99.90;;;;;;10322486;28;20113;-85
2022/12/21 06:32:34;;;;;;;119.67;47.43;;;1.30;99.90;;;;;;10355420;28;20034;-86
2022/12/21 06:37:35;;;;;;;91.13;36.10;;;1.30;99.90;;;;;;10322358;28;20053;-84
2022/12/21 06:42:35;;;;;;;118.23;44.33;;;1.30;99.90;;;;;;10321429;28;20441;-85
2022/12/21 06:47:36;;;;;;;99.57;36.63;;;1.40;99.90;;;;;;10321873;28;20927;-84
2022/12/21 06:52:36;;;;;;;121.73;42.03;;;1.40;99.90;;;;;;10321075;28;20030;-84
2022/12/21 06:57:37;;;;;;;89.67;34.27;;;1.40;99.90;;;;;;10322383;28;20385;-86
2022/12/21 07:02:37;;;;;;;80.70;29.90;;;1.40;99.90;;;;;;10353575;28;20109;-84
2022/12/21 07:07:38;;;;;;;84.73;30.50;;;1.50;99.90;;;;;;10321944;28;20105;-85
2022/12/21 07:12:38;;;;;;;87.27;31.57;;;1.50;99.90;;;;;;10353260;28;20022;-86
2022/12/21 07:17:39;;;;;;;86.83;34.17;;;1.60;99.90;;;;;;10321295;28;20030;-85
2022/12/21 07:22:40;;;;;;;74.47;30.43;;;1.60;99.90;;;;;;10320295;28;20092;-84
2022/12/21 07:27:40;;;;;;;72.37;30.07;;;1.60;99.90;;;;;;10320951;28;20030;-84
2022/12/21 07:32:41;;;;;;;81.60;32.77;;;1.60;99.90;;;;;;10351896;28;20034;-86
2022/12/21 07:37:41;;;;;;;78.93;32.23;;;1.60;99.90;;;;;;10319359;28;20058;-85
2022/12/21 07:42:43;;;;;;;81.07;32.27;;;1.70;99.90;;;;;;10352108;28;20054;-85
2022/12/21 07:47:44;;;;;;;88.03;34.00;;;1.70;99.90;;;;;;10306711;28;20031;-85
2022/12/21 07:52:44;;;;;;;87.73;36.43;;;1.80;99.90;;;;;;10320298;28;20112;-85
2022/12/21 07:57:45;;;;;;;84.73;36.63;;;1.80;99.90;;;;;;10351444;28;20777;-85
2022/12/21 08:02:46;;;;;;;92.00;38.43;;;1.80;99.90;;;;;;10318894;28;20030;-85
2022/12/21 08:07:47;;;;;;;83.33;34.80;;;1.90;99.90;;;;;;10319458;28;20041;-86
2022/12/21 08:12:48;;;;;;;81.87;32.83;;;1.90;99.90;;;;;;10318081;28;20426;-85
2022/12/21 08:17:51;;;;;;;79.73;31.67;;;2.00;99.90;;;;;;10350421;28;20080;-84
2022/12/21 08:22:52;;;;;;;77.13;32.73;;;2.00;99.90;;;;;;10351198;28;20104;-85
2022/12/21 08:27:54;;;;;;;78.37;33.43;;;2.00;99.90;;;;;;10319778;28;20046;-86
2022/12/21 08:32:54;;;;;;;83.07;30.93;;;2.00;99.90;;;;;;10350978;28;20034;-85
2022/12/21 08:37:55;;;;;;;71.87;31.40;;;2.00;99.90;;;;;;10319308;28;20034;-86
2022/12/21 08:42:56;;;;;;;70.13;31.03;;;2.10;99.90;;;;;;10349672;28;20062;-87
2022/12/21 08:47:56;;;;;;;71.50;29.20;;;2.10;99.90;;;;;;10318964;28;20035;-85
2022/12/21 08:52:57;;;;;;;73.10;29.97;;;2.20;99.90;;;;;;10318691;28;20034;-86
2022/12/21 08:57:57;;;;;;;79.17;32.00;;;2.30;99.90;;;;;;10349684;28;20029;-86
2022/12/21 09:02:58;;;;;;;70.33;29.80;;;2.30;99.90;;;;;;10317474;28;20379;-85
2022/12/21 09:07:59;;;;;;;79.10;32.37;;;2.30;99.90;;;;;;10317818;28;20501;-85
2022/12/21 09:13:02;;;;;;;58.73;27.13;;;2.40;99.90;;;;;;10357626;28;20036;-86
2022/12/21 09:18:02;;;;;;;72.07;31.37;;;2.40;99.90;;;;;;10324314;28;20046;-86
2022/12/21 09:23:03;;;;;;;60.13;26.33;;;2.50;99.90;;;;;;10326235;28;20026;-85
2022/12/21 09:28:04;;;;;;;61.13;26.03;;;2.50;99.90;;;;;;10325710;28;20033;-85
2022/12/21 09:33:05;;;;;;;60.63;27.57;;;2.50;99.90;;;;;;10356597;28;20509;-84
2022/12/21 09:38:05;;;;;;;62.30;28.57;;;2.50;99.90;;;;;;10357135;28;20034;-84
2022/12/21 09:43:16;;;;;;;69.33;26.77;;;2.50;99.90;;;;;;10325294;28;20058;-83
2022/12/21 09:48:24;;;;;;;66.70;27.70;;;2.60;99.90;;;;;;10323568;28;20831;-85
2022/12/21 09:53:33;;;;;;;68.20;29.33;;;2.60;99.90;;;;;;10355828;28;20467;-85
2022/12/21 09:58:54;;;;;;;70.47;29.23;;;2.60;99.90;;;;;;10355725;28;20095;-84
2022/12/21 10:04:25;;;;;;;84.63;34.10;;;2.60;99.90;;;;;;10324391;28;20043;-85
2022/12/21 10:09:34;;;;;;;71.70;30.73;;;2.60;99.90;;;;;;10322433;28;20034;-84
2022/12/21 10:15:14;;;;;;;88.27;36.23;;;2.60;99.90;;;;;;10324063;28;20043;-87
2022/12/21 10:20:46;;;;;;;81.00;32.83;;;2.60;99.90;;;;;;10324306;28;20033;-84
2022/12/21 10:25:50;;;;;;;64.57;29.10;;;2.60;99.90;;;;;;10323502;28;20157;-84
2022/12/21 10:31:08;;;;;;;60.57;25.40;;;2.70;99.90;;;;;;10323272;28;20046;-85
2022/12/21 10:36:16;;;;;;;75.77;30.70;;;2.70;99.90;;;;;;10323934;28;20038;-86
2022/12/21 10:41:25;;;;;;;62.77;27.77;;;2.70;99.90;;;;;;10323128;28;20070;-85
2022/12/21 10:46:31;;;;;;;64.60;27.93;;;2.60;99.90;;;;;;10353996;28;20042;-84
2022/12/21 10:51:34;;;;;;;60.15;25.95;;;2.60;99.90;;;;;;10322689;28;20023;-86
2022/12/21 10:56:48;;;;;;;87.03;34.60;;;2.70;99.90;;;;;;10353853;28;20033;-85
2022/12/21 11:01:50;;;;;;;96.67;38.03;;;2.70;99.90;;;;;;10354090;28;20030;-85
2022/12/21 11:07:27;;;;;;;65.67;29.70;;;2.70;99.90;;;;;;10321545;28;20116;-86
2022/12/21 11:12:28;;;;;;;69.87;31.70;;;2.70;99.90;;;;;;10317431;28;20042;-87
2022/12/21 11:17:31;;;;;;;66.77;30.20;;;2.80;99.90;;;;;;10353459;28;20018;-87
2022/12/21 11:22:33;;;;;;;80.77;32.77;;;2.80;99.90;;;;;;10352737;28;20509;-86
2022/12/21 11:27:35;;;;;;;85.63;36.43;;;2.90;99.90;;;;;;10320767;28;20042;-87
2022/12/21 11:32:43;;;;;;;74.90;32.93;;;2.90;99.90;;;;;;10320262;28;20042;-85
2022/12/21 11:37:50;;;;;;;72.97;32.50;;;2.90;99.90;;;;;;10352143;28;20080;-86
2022/12/21 11:43:00;;;;;;;87.30;39.10;;;2.90;99.90;;;;;;10351445;28;20177;-86
2022/12/21 11:48:25;;;;;;;69.50;33.93;;;3.00;99.90;;;;;;10352012;28;20033;-88
2022/12/21 11:53:54;;;;;;;85.43;38.13;;;3.00;99.90;;;;;;10318750;28;20030;-86
2022/12/21 11:59:13;;;;;;;75.17;32.47;;;3.00;99.90;;;;;;10318252;28;20092;-87
2022/12/21 12:04:41;;;;;;;69.93;31.60;;;3.00;99.90;;;;;;10318282;28;20548;-87
2022/12/21 12:09:44;;;;;;;72.90;34.33;;;2.90;99.90;;;;;;10317863;28;20490;-88
2022/12/21 12:15:19;;;;;;;70.17;31.93;;;2.90;99.90;;;;;;10319552;28;20166;-86
2022/12/21 12:20:47;;;;;;;70.50;31.07;;;3.00;99.90;;;;;;10350917;28;20065;-86
2022/12/21 12:26:00;;;;;;;79.43;35.87;;;3.00;99.90;;;;;;10350964;28;20041;-87
2022/12/21 12:31:22;;;;;;;71.13;29.43;;;3.00;99.90;;;;;;10317905;28;20030;-86
2022/12/21 12:36:30;;;;;;;64.93;29.00;;;3.00;99.90;;;;;;10317443;28;20406;-87
2022/12/21 12:41:33;;;;;;;61.63;29.47;;;3.00;99.90;;;;;;10317941;28;20074;-86
2022/12/21 12:47:14;;;;;;;77.77;30.23;;;2.90;99.90;;;;;;10324449;28;20045;-90
2022/12/21 12:52:46;;;;;;;74.73;29.87;;;2.90;99.90;;;;;;10326086;28;20044;-87
2022/12/21 12:58:10;;;;;;;150.37;58.53;;;2.80;99.90;;;;;;10348891;28;20030;-89
2022/12/21 13:03:25;;;;;;;88.83;36.50;;;2.70;99.90;;;;;;10358368;28;20054;-88
2022/12/21 13:09:09;;;;;;;150.45;52.15;;;2.70;99.90;;;;;;10327016;28;20069;-90
2022/12/21 13:14:22;;;;;;;136.33;48.07;;;2.60;99.90;;;;;;10331078;28;20466;-90
2022/12/21 13:19:25;;;;;;;119.40;46.53;;;2.50;99.90;;;;;;10358894;28;20019;-89
2022/12/21 13:24:42;;;;;;;112.23;41.43;;;2.40;99.90;;;;;;10357629;28;20494;-89
2022/12/21 13:29:59;;;;;;;113.23;45.07;;;2.40;99.90;;;;;;10357087;28;20501;-88
2022/12/21 13:35:13;;;;;;;106.20;44.10;;;2.30;99.90;;;;;;10353552;28;20026;-86
2022/12/21 13:40:13;;;;;;;111.43;46.97;;;2.30;99.90;;;;;;10334197;28;20521;-84
2022/12/21 13:45:55;;;;;;;132.03;52.50;;;2.20;99.90;;;;;;10322670;28;20045;-84
2022/12/21 13:51:24;;;;;;;128.60;54.87;;;2.20;99.90;;;;;;10311896;28;20061;-82
2022/12/21 13:56:59;;;;;;;119.67;46.43;;;2.20;99.90;;;;;;10322330;28;20042;-83
2022/12/21 14:02:35;;;;;;;122.57;47.77;;;2.20;99.90;;;;;;10300482;28;20043;-83
2022/12/21 14:07:50;;;;;;;125.35;49.60;;;2.20;99.90;;;;;;10316075;28;20030;-83
2022/12/21 14:13:15;;;;;;;117.47;46.57;;;2.20;99.90;;;;;;10324333;28;20049;-83
2022/12/21 14:18:17;;;;;;;132.93;50.40;;;2.20;99.90;;;;;;10289381;28;20069;-83
2022/12/21 14:23:28;;;;;;;140.30;54.40;;;2.10;99.90;;;;;;10323611;28;20041;-83
2022/12/21 14:28:32;;;;;;;123.03;48.87;;;2.10;99.90;;;;;;10323613;28;20038;-83
2022/12/21 14:33:40;;;;;;;131.00;50.00;;;2.10;99.90;;;;;;10354888;28;20100;-83
2022/12/21 14:38:59;;;;;;;125.37;46.07;;;2.10;99.90;;;;;;10323836;28;20150;-83
2022/12/21 14:44:21;;;;;;;125.87;46.73;;;2.10;99.90;;;;;;10322016;28;20061;-82
2022/12/21 14:49:37;;;;;;;161.73;58.03;;;2.10;99.90;;;;;;10322825;28;20121;-83
2022/12/21 14:54:38;;;;;;;151.83;55.90;;;2.00;99.90;;;;;;10322688;28;20038;-83
2022/12/21 14:59:41;;;;;;;124.33;46.20;;;2.00;99.90;;;;;;10354005;28;20088;-83
2022/12/21 15:04:49;;;;;;;141.87;52.87;;;2.10;99.90;;;;;;10321909;28;20046;-84
2022/12/21 15:10:00;;;;;;;145.20;53.07;;;2.00;99.90;;;;;;10321657;28;20050;-84
2022/12/21 15:15:13;;;;;;;144.93;58.50;;;2.00;99.90;;;;;;10321883;28;20030;-84
2022/12/21 15:20:45;;;;;;;141.20;57.40;;;2.00;99.90;;;;;;10321485;28;20549;-83
2022/12/21 15:25:47;;;;;;;179.13;65.07;;;2.00;99.90;;;;;;10352532;28;20046;-83
2022/12/21 15:31:07;;;;;;;147.23;58.73;;;2.00;99.90;;;;;;10321047;28;20079;-84
2022/12/21 15:36:15;;;;;;;140.70;52.10;;;2.00;99.90;;;;;;10321635;28;20651;-84
2022/12/21 15:41:43;;;;;;;158.70;59.50;;;2.00;99.90;;;;;;10321080;28;20061;-84
2022/12/21 15:47:21;;;;;;;149.03;54.50;;;2.00;99.90;;;;;;10320513;28;20113;-83
2022/12/21 15:52:40;;;;;;;149.60;54.43;;;2.00;99.90;;;;;;10316330;28;20053;-84
2022/12/21 15:57:55;;;;;;;150.80;51.67;;;2.00;99.90;;;;;;10313129;28;20753;-83
2022/12/21 16:03:00;;;;;;;146.30;57.03;;;2.00;99.90;;;;;;10319352;28;20092;-84
2022/12/21 16:08:03;;;;;;;163.27;56.90;;;2.00;99.90;;;;;;10344423;28;20481;-82
2022/12/21 16:13:08;;;;;;;158.83;59.43;;;2.00;99.90;;;;;;10319593;28;20626;-84
2022/12/21 16:18:20;;;;;;;248.93;88.38;;;1.90;99.90;;;;;;10314989;28;20497;-83
2022/12/21 16:23:25;;;;;;;232.00;75.63;;;1.90;99.90;;;;;;10317036;28;20030;-84
2022/12/21 16:28:28;;;;;;;234.90;82.00;;;2.00;99.90;;;;;;10316294;28;20118;-84
2022/12/21 16:33:37;;;;;;;259.30;93.73;;;1.90;99.90;;;;;;10317408;28;20026;-84
2022/12/21 16:38:38;;;;;;;255.80;91.13;;;1.90;99.90;;;;;;10304503;28;20651;-83
2022/12/21 16:43:38;;;;;;;241.53;87.30;;;1.90;99.90;;;;;;10299884;28;20039;-84
2022/12/21 16:48:47;;;;;;;225.53;81.83;;;1.90;99.90;;;;;;10307556;28;20032;-84
2022/12/21 16:53:48;;;;;;;236.43;87.53;;;1.90;99.90;;;;;;10309515;28;20025;-85
2022/12/21 16:58:58;;;;;;;282.53;96.93;;;1.90;99.90;;;;;;10305424;28;20039;-85
2022/12/21 17:04:14;;;;;;;290.90;93.70;;;1.90;99.90;;;;;;10312299;28;20082;-87
2022/12/21 17:09:21;;;;;;;307.15;100.35;;;1.90;99.90;;;;;;10309267;28;20023;-86
2022/12/21 17:14:21;;;;;;;278.63;96.77;;;1.90;99.90;;;;;;10315271;28;20022;-87
2022/12/21 17:19:23;;;;;;;276.60;93.43;;;1.90;99.90;;;;;;10313824;28;20039;-85
2022/12/21 17:24:41;;;;;;;394.63;130.40;;;2.00;99.90;;;;;;10315798;28;20104;-88
2022/12/21 17:29:42;;;;;;;334.63;109.83;;;1.90;99.90;;;;;;10311801;28;20041;-84
2022/12/21 17:34:43;;;;;;;253.30;85.47;;;1.90;99.90;;;;;;10321762;28;20030;-88
2022/12/21 17:39:44;;;;;;;360.77;115.43;;;2.00;99.90;;;;;;10321518;28;20050;-89
2022/12/21 17:44:45;;;;;;;225.90;74.53;;;2.00;99.90;;;;;;10328995;28;20046;-86
2022/12/21 17:49:45;;;;;;;224.13;76.77;;;2.00;99.90;;;;;;10316352;28;20045;-84
2022/12/21 17:54:46;;;;;;;224.53;82.70;;;2.00;99.90;;;;;;10315360;28;20043;-87
2022/12/21 17:59:47;;;;;;;256.90;93.23;;;2.00;99.90;;;;;;10314901;28;20041;-87
2022/12/21 18:04:53;;;;;;;237.90;78.93;;;2.00;99.90;;;;;;10314640;28;20034;-86
2022/12/21 18:09:53;;;;;;;213.90;75.10;;;2.00;99.90;;;;;;10348782;28;20042;-89
2022/12/21 18:14:54;;;;;;;195.97;69.20;;;2.00;99.90;;;;;;10347398;28;20050;-85
2022/12/21 18:19:54;;;;;;;200.00;74.07;;;2.00;99.90;;;;;;10295948;28;20045;-87
2022/12/21 18:24:55;;;;;;;182.60;64.43;;;2.00;99.90;;;;;;10299154;28;20297;-85
2022/12/21 18:35:36;;;;;;;167.37;60.77;;;2.00;99.90;;;;;;10317701;28;20308;-87
2022/12/21 18:41:14;;;;;;;161.20;58.70;;;2.00;99.90;;;;;;10294231;28;20067;-86
2022/12/21 18:58:59;;;;;;;183.27;65.90;;;2.00;99.90;;;;;;10682789;23;20081;-87
2022/12/21 19:10:26;;;;;;;202.07;78.60;;;2.10;99.90;;;;;;12136439;23;20509;-85
2022/12/21 19:26:34;;;;;;;173.77;59.40;;;2.10;99.90;;;;;;11407332;23;20458;-83
2022/12/21 19:31:58;;;;;;;149.60;55.00;;;2.10;99.90;;;;;;10292832;28;20022;-83
2022/12/21 19:37:09;;;;;;;143.57;53.10;;;2.20;99.90;;;;;;10306688;28;20050;-83
2022/12/21 19:42:19;;;;;;;144.83;54.83;;;2.20;99.90;;;;;;10316144;28;20840;-84
2022/12/21 19:53:17;;;;;;;;;;;2.30;99.90;;;;;;10319993;28;20038;-83
2022/12/21 19:58:32;;;;;;;154.87;59.53;;;2.20;99.90;;;;;;10315562;28;20369;-85
2022/12/21 20:03:32;;;;;;;134.57;52.90;;;2.20;99.90;;;;;;10299884;28;20084;-87
2022/12/21 20:08:33;;;;;;;126.37;53.70;;;2.20;99.90;;;;;;10299116;28;20034;-87
2022/12/21 20:13:45;;;;;;;130.60;51.63;;;2.30;99.90;;;;;;10317815;28;20505;-87
2022/12/21 20:18:46;;;;;;;141.43;53.53;;;2.30;99.90;;;;;;10315249;28;20069;-84
2022/12/21 20:23:50;;;;;;;124.43;49.03;;;2.30;99.90;;;;;;10294007;28;20042;-84
2022/12/21 20:28:54;;;;;;;118.63;45.70;;;2.30;99.90;;;;;;10314063;28;20133;-84
2022/12/21 20:33:56;;;;;;;122.60;50.20;;;2.30;99.90;;;;;;10316564;28;20113;-86
2022/12/21 20:38:57;;;;;;;130.20;50.53;;;2.30;99.90;;;;;;10297188;28;20034;-88
2022/12/21 20:43:57;;;;;;;129.07;52.23;;;2.30;99.90;;;;;;10287777;28;20093;-85
2022/12/21 20:48:58;;;;;;;135.00;53.37;;;2.30;99.90;;;;;;10294342;28;20441;-87
2022/12/21 20:53:59;;;;;;;151.30;56.07;;;2.40;99.90;;;;;;10311089;28;20030;-86
2022/12/21 20:58:59;;;;;;;126.00;50.20;;;2.40;99.90;;;;;;10291042;28;20038;-88
2022/12/21 21:04:01;;;;;;;135.10;54.60;;;2.30;99.90;;;;;;10287772;28;20042;-89
2022/12/21 21:09:02;;;;;;;118.40;46.93;;;2.40;99.90;;;;;;10301900;28;20761;-88
2022/12/21 21:14:03;;;;;;;126.87;51.33;;;2.30;99.90;;;;;;10300047;28;20631;-88
2022/12/21 21:19:05;;;;;;;129.70;46.80;;;2.40;99.90;;;;;;10301461;28;20042;-88
2022/12/21 21:24:06;;;;;;;112.17;44.33;;;2.40;99.90;;;;;;10312460;28;20747;-87
2022/12/21 21:29:19;;;;;;;101.33;41.70;;;2.40;99.90;;;;;;10314394;28;20024;-87
2022/12/21 21:34:20;;;;;;;126.17;48.30;;;2.40;99.90;;;;;;10314960;28;20624;-88
2022/12/21 21:44:52;;;;;;;115.30;44.30;;;2.40;99.90;;;;;;10318340;28;20045;-88
2022/12/21 21:49:53;;;;;;;113.67;44.63;;;2.30;99.90;;;;;;10291189;28;20023;-88
2022/12/21 21:54:53;;;;;;;118.60;45.40;;;2.30;99.90;;;;;;10296629;28;20462;-89
2022/12/21 21:59:59;;;;;;;124.07;46.60;;;2.30;99.90;;;;;;10296190;28;20505;-88
2022/12/21 22:04:59;;;;;;;92.93;33.13;;;2.30;99.90;;;;;;10297012;28;20093;-90
2022/12/21 22:15:21;;;;;;;111.30;41.27;;;2.30;99.90;;;;;;10311344;28;20073;-88
2022/12/21 22:47:06;;;;;;;127.23;49.57;;;2.40;99.90;;;;;;10319911;28;20046;-90
2022/12/21 22:52:08;;;;;;;116.03;48.07;;;2.40;99.90;;;;;;10318582;28;20030;-89
2022/12/21 22:57:14;;;;;;;116.80;46.63;;;2.30;99.90;;;;;;10319910;28;20037;-89
2022/12/21 23:02:14;;;;;;;113.75;43.55;;;2.40;99.90;;;;;;10305496;28;20041;-90
2022/12/21 23:07:15;;;;;;;121.27;45.30;;;2.30;99.90;;;;;;10301252;28;21630;-90
2022/12/21 23:28:13;;;;;;;125.27;45.70;;;2.30;99.90;;;;;;10314779;28;20069;-92
2022/12/21 23:44:07;;;;;;;139.33;55.97;;;2.20;99.90;;;;;;10316891;28;20054;-88
